KLM743 EHAM-SPJC
Flight info
| Callsign | KLM743 |
|---|---|
| Flight time | N/A |
| Altitude | 23000 |
| Route | WOODY N872 CIV/N0482F290 DCT KOVIN DCT NIDUV DCT KIHVI UN872 ERIGA UN741 AZFIC DCT LOTEE DCT AGADO DCT GUNTI/M083F300 DCT 3630N02000W 32N030W/M083F320 27N040W 24N045W 20N050W DCT DABAK/N0499F320 DCT PIPUV/N0492F340 DCT USABO DCT DOBDA UM527 VADOS |
| Aircraft | B77W/H-SDE1E2E3FGHIJ2J3J4J5M1RWXY/LB1D1 |
Departure
| Time | N/A |
|---|---|
| Airport | Amsterdam Airport Schiphol (EHAM) |
Arrival
| Time | 2026-05-06 09:26 |
|---|---|
| Airport | Jorge Chávez International Airport (SPJC) |
| Time | Latitude | Longitude | Altitude | Speed | Heading |
|---|---|---|---|---|---|
| 2026-05-06 07:44 | 41.46833 | -9.85864 | 30033 ft | 473 kts | 241° |
| 2026-05-06 07:44 | 41.33607 | -10.15689 | 29950 ft | 460 kts | 241° |
| 2026-05-06 07:45 | 41.20597 | -10.44759 | 30099 ft | 459 kts | 240° |
| 2026-05-06 07:45 | 41.07360 | -10.74052 | 30196 ft | 469 kts | 240° |
| 2026-05-06 07:45 | 40.80334 | -11.32982 | 29978 ft | 458 kts | 239° |
| 2026-05-06 07:46 | 40.53931 | -11.89476 | 30204 ft | 463 kts | 239° |
| 2026-05-06 07:46 | 40.26331 | -12.47437 | 30032 ft | 463 kts | 239° |
| 2026-05-06 07:47 | 39.98871 | -13.04081 | 30197 ft | 470 kts | 240° |
| 2026-05-06 07:47 | 39.75101 | -13.52295 | 30098 ft | 475 kts | 240° |
| 2026-05-06 07:48 | 39.56126 | -13.90260 | 30047 ft | 464 kts | 241° |
| 2026-05-06 07:48 | 39.41877 | -14.18487 | 30184 ft | 475 kts | 241° |
| 2026-05-06 07:48 | 39.27302 | -14.47100 | 30248 ft | 489 kts | 241° |
| 2026-05-06 07:48 | 39.12295 | -14.76285 | 30092 ft | 486 kts | 240° |
| 2026-05-06 07:49 | 38.84237 | -15.33965 | 30207 ft | 477 kts | 243° |
| 2026-05-06 07:49 | 38.70314 | -15.63545 | 30288 ft | 491 kts | 243° |
| 2026-05-06 07:49 | 38.60968 | -15.83288 | 30198 ft | 490 kts | 242° |
| 2026-05-06 07:50 | 38.46894 | -16.12789 | 30054 ft | 479 kts | 242° |
| 2026-05-06 07:50 | 38.28364 | -16.51243 | 30222 ft | 480 kts | 242° |
| 2026-05-06 07:50 | 37.99632 | -17.09945 | 30184 ft | 496 kts | 243° |
| 2026-05-06 07:51 | 37.85068 | -17.39306 | 30070 ft | 487 kts | 243° |
| 2026-05-06 07:51 | 37.75315 | -17.58850 | 30148 ft | 487 kts | 243° |
| 2026-05-06 07:51 | 37.55746 | -17.97686 | 30306 ft | 504 kts | 244° |
| 2026-05-06 07:51 | 37.45667 | -18.17505 | 30283 ft | 509 kts | 244° |
| 2026-05-06 07:52 | 37.30394 | -18.47301 | 30138 ft | 502 kts | 244° |
| 2026-05-06 07:52 | 37.15356 | -18.76401 | 30120 ft | 495 kts | 244° |
| 2026-05-06 07:52 | 37.00157 | -19.05563 | 30289 ft | 505 kts | 243° |
| 2026-05-06 07:52 | 36.84496 | -19.35335 | 30320 ft | 518 kts | 243° |
| 2026-05-06 07:53 | 36.68631 | -19.65213 | 30150 ft | 514 kts | 243° |
| 2026-05-06 07:53 | 36.52956 | -19.94503 | 30121 ft | 504 kts | 243° |
| 2026-05-06 07:53 | 36.40251 | -20.24703 | 30317 ft | 496 kts | 253° |
| 2026-05-06 07:53 | 36.28221 | -20.56004 | 30415 ft | 519 kts | 250° |
| 2026-05-06 07:54 | 36.15512 | -20.87981 | 30204 ft | 512 kts | 250° |
| 2026-05-06 07:54 | 36.03139 | -21.18992 | 30107 ft | 495 kts | 250° |
| 2026-05-06 07:54 | 35.90869 | -21.49469 | 30303 ft | 498 kts | 250° |
| 2026-05-06 07:54 | 35.78314 | -21.80344 | 30383 ft | 512 kts | 249° |
| 2026-05-06 07:55 | 35.61283 | -22.21713 | 30205 ft | 506 kts | 249° |
| 2026-05-06 07:55 | 35.52712 | -22.42349 | 30154 ft | 497 kts | 249° |
| 2026-05-06 07:55 | 35.40141 | -22.72421 | 30282 ft | 498 kts | 249° |
| 2026-05-06 07:55 | 35.27280 | -23.02896 | 30393 ft | 510 kts | 248° |
| 2026-05-06 07:56 | 35.14091 | -23.33830 | 30287 ft | 512 kts | 248° |
| 2026-05-06 07:56 | 35.01153 | -23.63904 | 30162 ft | 500 kts | 248° |
| 2026-05-06 07:56 | 34.75050 | -24.23860 | 30408 ft | 511 kts | 248° |
| 2026-05-06 07:57 | 34.47998 | -24.84826 | 30177 ft | 503 kts | 247° |
| 2026-05-06 07:57 | 34.21399 | -25.43800 | 30383 ft | 506 kts | 246° |
| 2026-05-06 07:58 | 33.94204 | -26.03033 | 30197 ft | 500 kts | 245° |
| 2026-05-06 07:58 | 33.80796 | -26.31883 | 30206 ft | 489 kts | 245° |
| 2026-05-06 07:58 | 33.67403 | -26.60479 | 30357 ft | 496 kts | 244° |
| 2026-05-06 07:59 | 33.39772 | -27.18736 | 30673 ft | 511 kts | 244° |
| 2026-05-06 07:59 | 33.25700 | -27.48006 | 32214 ft | 507 kts | 245° |
| 2026-05-06 07:59 | 33.11610 | -27.77163 | 32328 ft | 503 kts | 245° |
| 2026-05-06 08:00 | 32.97834 | -28.05387 | 32142 ft | 483 kts | 245° |
| 2026-05-06 08:00 | 32.84640 | -28.32242 | 32199 ft | 472 kts | 245° |
| 2026-05-06 08:00 | 32.71245 | -28.59319 | 32355 ft | 480 kts | 245° |
| 2026-05-06 08:00 | 32.57465 | -28.86949 | 32402 ft | 492 kts | 244° |
| 2026-05-06 08:01 | 32.43517 | -29.14689 | 32245 ft | 487 kts | 244° |
| 2026-05-06 08:01 | 32.29786 | -29.41811 | 32167 ft | 473 kts | 244° |
| 2026-05-06 08:01 | 32.16375 | -29.68129 | 32281 ft | 473 kts | 244° |
| 2026-05-06 08:01 | 32.02503 | -29.95148 | 32398 ft | 485 kts | 244° |
| 2026-05-06 08:02 | 31.77416 | -30.51175 | 32221 ft | 479 kts | 247° |
| 2026-05-06 08:02 | 31.65156 | -30.78612 | 32171 ft | 467 kts | 247° |
| 2026-05-06 08:02 | 31.53169 | -31.05301 | 32338 ft | 473 kts | 246° |
| 2026-05-06 08:03 | 31.40555 | -31.33155 | 32400 ft | 486 kts | 246° |
| 2026-05-06 08:03 | 31.27932 | -31.60810 | 32276 ft | 485 kts | 246° |
| 2026-05-06 08:03 | 31.15213 | -31.88482 | 32169 ft | 472 kts | 246° |
| 2026-05-06 08:03 | 31.02805 | -32.15300 | 32255 ft | 470 kts | 246° |
| 2026-05-06 08:04 | 30.90227 | -32.42290 | 32394 ft | 482 kts | 246° |
| 2026-05-06 08:04 | 30.77345 | -32.69719 | 32346 ft | 490 kts | 245° |
| 2026-05-06 08:04 | 30.64202 | -32.97500 | 32194 ft | 482 kts | 245° |
| 2026-05-06 08:04 | 30.51557 | -33.24054 | 32179 ft | 473 kts | 245° |
| 2026-05-06 08:05 | 30.38714 | -33.50847 | 32329 ft | 480 kts | 245° |
| 2026-05-06 08:05 | 30.25518 | -33.78178 | 32378 ft | 493 kts | 245° |
| 2026-05-06 08:05 | 29.98661 | -34.33193 | 32167 ft | 482 kts | 245° |
| 2026-05-06 08:06 | 29.72236 | -34.86626 | 32361 ft | 487 kts | 244° |
| 2026-05-06 08:06 | 29.45029 | -35.40870 | 32210 ft | 489 kts | 244° |
| 2026-05-06 08:07 | 29.31558 | -35.67463 | 32161 ft | 477 kts | 244° |
| 2026-05-06 08:07 | 29.18168 | -35.93741 | 32278 ft | 481 kts | 244° |
| 2026-05-06 08:07 | 29.04435 | -36.20515 | 32382 ft | 494 kts | 243° |
| 2026-05-06 08:07 | 28.90423 | -36.47633 | 32276 ft | 494 kts | 243° |
| 2026-05-06 08:08 | 28.76542 | -36.74329 | 32170 ft | 483 kts | 243° |
| 2026-05-06 08:08 | 28.62938 | -37.00336 | 32203 ft | 478 kts | 243° |
| 2026-05-06 08:08 | 28.49140 | -37.26554 | 32341 ft | 488 kts | 242° |
| 2026-05-06 08:08 | 28.35148 | -37.52960 | 32348 ft | 498 kts | 242° |
| 2026-05-06 08:09 | 28.20853 | -37.79760 | 32198 ft | 492 kts | 242° |
| 2026-05-06 08:09 | 28.06829 | -38.05901 | 32151 ft | 480 kts | 242° |
| 2026-05-06 08:09 | 27.92912 | -38.31697 | 32281 ft | 483 kts | 242° |
| 2026-05-06 08:09 | 27.78680 | -38.57911 | 32377 ft | 495 kts | 242° |
| 2026-05-06 08:10 | 27.64143 | -38.84505 | 32258 ft | 497 kts | 241° |
| 2026-05-06 08:10 | 27.49727 | -39.10722 | 32140 ft | 486 kts | 241° |
| 2026-05-06 08:10 | 27.21294 | -39.61996 | 32336 ft | 490 kts | 241° |
| 2026-05-06 08:11 | 26.92030 | -40.14038 | 32185 ft | 493 kts | 240° |
| 2026-05-06 08:11 | 26.77431 | -40.39541 | 32130 ft | 480 kts | 240° |
| 2026-05-06 08:11 | 26.63000 | -40.64667 | 32255 ft | 484 kts | 240° |
| 2026-05-06 08:12 | 26.48200 | -40.90273 | 32338 ft | 497 kts | 239° |
| 2026-05-06 08:12 | 26.33102 | -41.16247 | 32243 ft | 498 kts | 239° |
| 2026-05-06 08:12 | 26.18330 | -41.41513 | 32122 ft | 487 kts | 239° |
| 2026-05-06 08:12 | 26.03443 | -41.66845 | 32173 ft | 482 kts | 239° |
| 2026-05-06 08:13 | 25.88798 | -41.91631 | 32297 ft | 492 kts | 239° |
| 2026-05-06 08:13 | 25.73559 | -42.17281 | 32287 ft | 502 kts | 239° |
| 2026-05-06 08:13 | 25.58207 | -42.42968 | 32147 ft | 495 kts | 238° |
| 2026-05-06 08:13 | 25.43131 | -42.68065 | 32106 ft | 485 kts | 238° |
| 2026-05-06 08:14 | 25.28094 | -42.92969 | 32237 ft | 491 kts | 238° |
| 2026-05-06 08:14 | 25.12680 | -43.18358 | 32304 ft | 503 kts | 238° |
| 2026-05-06 08:14 | 24.97024 | -43.44000 | 32199 ft | 502 kts | 238° |
| 2026-05-06 08:14 | 24.81756 | -43.68880 | 32088 ft | 491 kts | 238° |
| 2026-05-06 08:15 | 24.51141 | -44.18396 | 32284 ft | 498 kts | 237° |
| 2026-05-06 08:15 | 24.19587 | -44.68899 | 32116 ft | 496 kts | 237° |
| 2026-05-06 08:16 | 23.87312 | -45.16900 | 32199 ft | 494 kts | 230° |
| 2026-05-06 08:16 | 23.51347 | -45.63450 | 32157 ft | 500 kts | 231° |
| 2026-05-06 08:17 | 23.33835 | -45.86078 | 32064 ft | 489 kts | 231° |
| 2026-05-06 08:17 | 23.16357 | -46.08581 | 32154 ft | 488 kts | 231° |
| 2026-05-06 08:17 | 22.98634 | -46.31291 | 32267 ft | 498 kts | 231° |
| 2026-05-06 08:17 | 22.80496 | -46.54433 | 32225 ft | 504 kts | 231° |
| 2026-05-06 08:18 | 22.62434 | -46.77367 | 32109 ft | 496 kts | 231° |
| 2026-05-06 08:18 | 22.44687 | -46.99807 | 32062 ft | 485 kts | 231° |
| 2026-05-06 08:18 | 22.27161 | -47.21878 | 32190 ft | 487 kts | 231° |
| 2026-05-06 08:18 | 22.09294 | -47.44279 | 32274 ft | 498 kts | 230° |
| 2026-05-06 08:19 | 21.73358 | -47.89047 | 32079 ft | 488 kts | 230° |
| 2026-05-06 08:19 | 21.38022 | -48.32705 | 32211 ft | 489 kts | 230° |
| 2026-05-06 08:20 | 21.19907 | -48.54947 | 32244 ft | 500 kts | 229° |
| 2026-05-06 08:20 | 21.01622 | -48.77315 | 32114 ft | 496 kts | 229° |
| 2026-05-06 08:20 | 20.65806 | -49.20855 | 32113 ft | 485 kts | 229° |
| 2026-05-06 08:21 | 20.47795 | -49.42626 | 32232 ft | 495 kts | 229° |
| 2026-05-06 08:21 | 20.29605 | -49.64529 | 32213 ft | 503 kts | 228° |
| 2026-05-06 08:21 | 20.11150 | -49.86666 | 32085 ft | 497 kts | 228° |
| 2026-05-06 08:21 | 19.91409 | -50.06511 | 32009 ft | 484 kts | 210° |
| 2026-05-06 08:22 | 19.68189 | -50.21192 | 32206 ft | 490 kts | 212° |
| 2026-05-06 08:22 | 19.44869 | -50.36925 | 32250 ft | 504 kts | 212° |
| 2026-05-06 08:22 | 19.21082 | -50.52729 | 32126 ft | 503 kts | 212° |
| 2026-05-06 08:22 | 18.97621 | -50.68296 | 32036 ft | 493 kts | 212° |
| 2026-05-06 08:23 | 18.51739 | -50.98577 | 32210 ft | 498 kts | 212° |
| 2026-05-06 08:23 | 18.27950 | -51.14186 | 33831 ft | 505 kts | 212° |
| 2026-05-06 08:23 | 18.03889 | -51.29957 | 34225 ft | 512 kts | 213° |
| 2026-05-06 08:24 | 17.80737 | -51.46762 | 34056 ft | 498 kts | 217° |
| 2026-05-06 08:24 | 17.74930 | -51.51169 | 34041 ft | 491 kts | 216° |
| 2026-05-06 08:24 | 17.69396 | -51.55283 | 34119 ft | 486 kts | 216° |
| 2026-05-06 08:25 | 17.63859 | -51.59377 | 34119 ft | 487 kts | 216° |
| 2026-05-06 08:25 | 17.58352 | -51.63454 | 34119 ft | 488 kts | 216° |
| 2026-05-06 08:26 | 17.52800 | -51.67564 | 34117 ft | 489 kts | 216° |
| 2026-05-06 08:26 | 17.47242 | -51.71680 | 34115 ft | 489 kts | 216° |
| 2026-05-06 08:27 | 17.41681 | -51.75794 | 34117 ft | 489 kts | 216° |
| 2026-05-06 08:27 | 17.36154 | -51.79881 | 34116 ft | 489 kts | 216° |
| 2026-05-06 08:28 | 17.30597 | -51.83985 | 34114 ft | 489 kts | 216° |
| 2026-05-06 08:28 | 17.25042 | -51.88085 | 34106 ft | 488 kts | 216° |
| 2026-05-06 08:29 | 17.19491 | -51.92179 | 34104 ft | 488 kts | 216° |
| 2026-05-06 08:29 | 17.13944 | -51.96268 | 34110 ft | 488 kts | 216° |
| 2026-05-06 08:30 | 17.08436 | -52.00325 | 34113 ft | 488 kts | 216° |
| 2026-05-06 08:30 | 17.02893 | -52.04403 | 34116 ft | 487 kts | 216° |
| 2026-05-06 08:31 | 16.97346 | -52.08483 | 34114 ft | 487 kts | 216° |
| 2026-05-06 08:31 | 16.91798 | -52.12560 | 34104 ft | 487 kts | 216° |
| 2026-05-06 08:32 | 16.86290 | -52.16604 | 34114 ft | 488 kts | 216° |
| 2026-05-06 08:32 | 16.80740 | -52.20677 | 34106 ft | 488 kts | 216° |
| 2026-05-06 08:33 | 16.75187 | -52.24749 | 34112 ft | 488 kts | 216° |
| 2026-05-06 08:33 | 16.69635 | -52.28816 | 34113 ft | 488 kts | 216° |
| 2026-05-06 08:34 | 16.61338 | -52.34889 | 34110 ft | 488 kts | 216° |
| 2026-05-06 08:35 | 16.55780 | -52.38955 | 34103 ft | 488 kts | 216° |
| 2026-05-06 08:35 | 16.50226 | -52.43016 | 34114 ft | 488 kts | 216° |
| 2026-05-06 08:36 | 16.44665 | -52.47075 | 34104 ft | 488 kts | 216° |
| 2026-05-06 08:36 | 16.39143 | -52.51105 | 34109 ft | 488 kts | 216° |
| 2026-05-06 08:37 | 16.33587 | -52.55158 | 34111 ft | 488 kts | 216° |
| 2026-05-06 08:37 | 16.28028 | -52.59208 | 34107 ft | 488 kts | 216° |
| 2026-05-06 08:38 | 16.22467 | -52.63258 | 34102 ft | 488 kts | 216° |
| 2026-05-06 08:38 | 15.86936 | -52.89068 | 34108 ft | 488 kts | 216° |
| 2026-05-06 08:39 | 15.42364 | -53.21283 | 34098 ft | 488 kts | 216° |
| 2026-05-06 08:39 | 14.97688 | -53.53402 | 34086 ft | 489 kts | 216° |
| 2026-05-06 08:40 | 14.52992 | -53.85378 | 34085 ft | 488 kts | 216° |
| 2026-05-06 08:40 | 14.08587 | -54.16978 | 34077 ft | 487 kts | 216° |
| 2026-05-06 08:41 | 13.64013 | -54.48558 | 34076 ft | 486 kts | 216° |
| 2026-05-06 08:41 | 13.19489 | -54.79941 | 34071 ft | 485 kts | 215° |
| 2026-05-06 08:42 | 12.75046 | -55.11124 | 34074 ft | 483 kts | 215° |
| 2026-05-06 08:42 | 12.31094 | -55.41842 | 34056 ft | 480 kts | 215° |
| 2026-05-06 08:43 | 11.87107 | -55.72452 | 34046 ft | 477 kts | 216° |
| 2026-05-06 08:43 | 11.43220 | -56.02878 | 34059 ft | 476 kts | 215° |
| 2026-05-06 08:44 | 10.99521 | -56.33054 | 34044 ft | 473 kts | 215° |
| 2026-05-06 08:44 | 10.55424 | -56.61438 | 34013 ft | 472 kts | 208° |
| 2026-05-06 08:45 | 10.09182 | -56.86407 | 34022 ft | 470 kts | 209° |
| 2026-05-06 08:45 | 9.63064 | -57.11426 | 34017 ft | 470 kts | 209° |
| 2026-05-06 08:46 | 9.16832 | -57.36434 | 34023 ft | 471 kts | 209° |
| 2026-05-06 08:46 | 8.71136 | -57.62453 | 34005 ft | 472 kts | 213° |
| 2026-05-06 08:47 | 8.26372 | -57.89628 | 34011 ft | 473 kts | 212° |
| 2026-05-06 08:47 | 7.81151 | -58.16974 | 34004 ft | 474 kts | 212° |
| 2026-05-06 08:48 | 7.35840 | -58.44303 | 34000 ft | 475 kts | 211° |
| 2026-05-06 08:48 | 6.90410 | -58.71632 | 34006 ft | 477 kts | 211° |
| 2026-05-06 08:49 | 6.44712 | -58.99068 | 34027 ft | 479 kts | 211° |
| 2026-05-06 08:49 | 5.99141 | -59.26371 | 34005 ft | 480 kts | 211° |
| 2026-05-06 08:50 | 5.53214 | -59.53827 | 34048 ft | 481 kts | 211° |
| 2026-05-06 08:50 | 5.07145 | -59.81319 | 34079 ft | 482 kts | 211° |
| 2026-05-06 08:51 | 4.61043 | -60.08786 | 34025 ft | 482 kts | 211° |
| 2026-05-06 08:51 | 4.40725 | -60.25493 | 34064 ft | 480 kts | 226° |
| 2026-05-06 08:51 | 4.21730 | -60.44305 | 34032 ft | 481 kts | 223° |
| 2026-05-06 08:52 | 3.83212 | -60.81720 | 33973 ft | 483 kts | 224° |
| 2026-05-06 08:52 | 3.44754 | -61.19325 | 33998 ft | 484 kts | 223° |
| 2026-05-06 08:53 | 3.05898 | -61.56693 | 33997 ft | 484 kts | 223° |
| 2026-05-06 08:53 | 2.67170 | -61.93788 | 33992 ft | 486 kts | 223° |
| 2026-05-06 08:54 | 2.28127 | -62.31306 | 34003 ft | 488 kts | 223° |
| 2026-05-06 08:54 | 1.88941 | -62.69069 | 34005 ft | 490 kts | 222° |
| 2026-05-06 08:55 | 1.49656 | -63.06967 | 34003 ft | 491 kts | 222° |
| 2026-05-06 08:55 | 1.10643 | -63.44711 | 33965 ft | 492 kts | 223° |
| 2026-05-06 08:56 | 0.71198 | -63.82848 | 33976 ft | 495 kts | 222° |
| 2026-05-06 08:56 | 0.31437 | -64.21192 | 33994 ft | 498 kts | 222° |
| 2026-05-06 08:57 | -0.08349 | -64.59891 | 33993 ft | 500 kts | 223° |
| 2026-05-06 08:57 | -0.47946 | -64.98926 | 33980 ft | 500 kts | 223° |
| 2026-05-06 08:58 | -0.87312 | -65.37693 | 33985 ft | 502 kts | 225° |
| 2026-05-06 08:58 | -1.24422 | -65.79772 | 34009 ft | 505 kts | 226° |
| 2026-05-06 08:59 | -1.61850 | -66.21869 | 34008 ft | 508 kts | 226° |
| 2026-05-06 08:59 | -1.99484 | -66.64204 | 33971 ft | 510 kts | 226° |
| 2026-05-06 09:00 | -2.36997 | -67.06380 | 33991 ft | 511 kts | 225° |
| 2026-05-06 09:00 | -2.76759 | -67.47483 | 35009 ft | 520 kts | 224° |
| 2026-05-06 09:00 | -2.97142 | -67.68144 | 35994 ft | 526 kts | 224° |
| 2026-05-06 09:01 | -3.17736 | -67.89053 | 36037 ft | 526 kts | 224° |
| 2026-05-06 09:01 | -3.37972 | -68.09606 | 35874 ft | 511 kts | 224° |
| 2026-05-06 09:01 | -3.57654 | -68.29602 | 35860 ft | 496 kts | 224° |
| 2026-05-06 09:01 | -3.76945 | -68.49217 | 35975 ft | 495 kts | 224° |
| 2026-05-06 09:02 | -3.96156 | -68.68766 | 36103 ft | 505 kts | 225° |
| 2026-05-06 09:02 | -4.36112 | -69.09551 | 35959 ft | 511 kts | 225° |
| 2026-05-06 09:02 | -4.55811 | -69.29696 | 35882 ft | 500 kts | 225° |
| 2026-05-06 09:03 | -4.75119 | -69.49445 | 35938 ft | 493 kts | 225° |
| 2026-05-06 09:03 | -4.94433 | -69.69160 | 36053 ft | 499 kts | 225° |
| 2026-05-06 09:03 | -5.14062 | -69.89258 | 36115 ft | 510 kts | 226° |
| 2026-05-06 09:04 | -5.53744 | -70.29965 | 35904 ft | 502 kts | 226° |
| 2026-05-06 09:04 | -5.91941 | -70.69227 | 36016 ft | 495 kts | 226° |
| 2026-05-06 09:05 | -6.31204 | -71.09590 | 36055 ft | 511 kts | 226° |
| 2026-05-06 09:05 | -6.50977 | -71.29980 | 35951 ft | 505 kts | 226° |
| 2026-05-06 09:05 | -6.70344 | -71.50008 | 35885 ft | 494 kts | 226° |
| 2026-05-06 09:06 | -7.08217 | -71.89228 | 36055 ft | 496 kts | 226° |
| 2026-05-06 09:06 | -7.47146 | -72.29595 | 35963 ft | 500 kts | 227° |
| 2026-05-06 09:06 | -7.66360 | -72.49559 | 35882 ft | 489 kts | 227° |
| 2026-05-06 09:07 | -7.85076 | -72.69028 | 35918 ft | 482 kts | 227° |
| 2026-05-06 09:07 | -8.03823 | -72.88580 | 36041 ft | 488 kts | 227° |
| 2026-05-06 09:07 | -8.22921 | -73.08516 | 36110 ft | 500 kts | 227° |
| 2026-05-06 09:08 | -8.61515 | -73.49344 | 35916 ft | 498 kts | 229° |
| 2026-05-06 09:08 | -8.98444 | -73.89299 | 35986 ft | 488 kts | 228° |
| 2026-05-06 09:09 | -9.36144 | -74.30130 | 36060 ft | 503 kts | 228° |
| 2026-05-06 09:09 | -9.73682 | -74.70968 | 35914 ft | 485 kts | 229° |
| 2026-05-06 09:10 | -10.10037 | -75.10668 | 36078 ft | 486 kts | 228° |
| 2026-05-06 09:10 | -10.28424 | -75.30798 | 36174 ft | 498 kts | 228° |
| 2026-05-06 09:10 | -10.47289 | -75.51484 | 36150 ft | 498 kts | 229° |
| 2026-05-06 09:10 | -10.65761 | -75.71766 | 34261 ft | 475 kts | 229° |
| 2026-05-06 09:11 | -10.83263 | -75.91069 | 30715 ft | 452 kts | 229° |
| 2026-05-06 09:11 | -10.99639 | -76.09457 | 27379 ft | 423 kts | 233° |
| 2026-05-06 09:11 | -11.12887 | -76.28528 | 24680 ft | 400 kts | 236° |
| 2026-05-06 09:11 | -11.25213 | -76.45863 | 21148 ft | 376 kts | 234° |
| 2026-05-06 09:12 | -11.37295 | -76.62879 | 18675 ft | 365 kts | 234° |
| 2026-05-06 09:12 | -11.48867 | -76.79184 | 16337 ft | 353 kts | 234° |
| 2026-05-06 09:12 | -11.59901 | -76.94773 | 13637 ft | 309 kts | 234° |
| 2026-05-06 09:12 | -11.69411 | -77.08242 | 8871 ft | 279 kts | 234° |
| 2026-05-06 09:13 | -11.73900 | -77.14591 | 6571 ft | 269 kts | 234° |
| 2026-05-06 09:13 | -11.74994 | -77.16141 | 5993 ft | 268 kts | 235° |
| 2026-05-06 09:13 | -11.75813 | -77.17811 | 5491 ft | 261 kts | 260° |
| 2026-05-06 09:13 | -11.75757 | -77.19590 | 5059 ft | 248 kts | 289° |
| 2026-05-06 09:14 | -11.74862 | -77.21017 | 4670 ft | 234 kts | 320° |
| 2026-05-06 09:14 | -11.73497 | -77.21810 | 4231 ft | 222 kts | 336° |
| 2026-05-06 09:14 | -11.72112 | -77.22444 | 3761 ft | 214 kts | 336° |
| 2026-05-06 09:14 | -11.70849 | -77.23028 | 3755 ft | 191 kts | 329° |
| 2026-05-06 09:15 | -11.70094 | -77.24029 | 3721 ft | 185 kts | 278° |
| 2026-05-06 09:15 | -11.70253 | -77.25341 | 4078 ft | 195 kts | 247° |
| 2026-05-06 09:15 | -11.71077 | -77.26505 | 4162 ft | 217 kts | 218° |
| 2026-05-06 09:15 | -11.72502 | -77.27077 | 3938 ft | 230 kts | 181° |
| 2026-05-06 09:16 | -11.74037 | -77.26674 | 3705 ft | 231 kts | 155° |
| 2026-05-06 09:16 | -11.79366 | -77.23953 | 2608 ft | 231 kts | 154° |
| 2026-05-06 09:16 | -11.87070 | -77.20124 | 2001 ft | 192 kts | 154° |
| 2026-05-06 09:16 | -11.88291 | -77.19512 | 2252 ft | 196 kts | 154° |
| 2026-05-06 09:17 | -11.89489 | -77.18913 | 2364 ft | 193 kts | 154° |
| 2026-05-06 09:17 | -11.90721 | -77.18295 | 2451 ft | 202 kts | 154° |
| 2026-05-06 09:17 | -11.91993 | -77.17662 | 2478 ft | 204 kts | 154° |
| 2026-05-06 09:17 | -11.93207 | -77.17062 | 2453 ft | 183 kts | 154° |
| 2026-05-06 09:18 | -11.94289 | -77.16525 | 2453 ft | 164 kts | 154° |
| 2026-05-06 09:18 | -11.95296 | -77.16022 | 2030 ft | 159 kts | 154° |
| 2026-05-06 09:18 | -11.96294 | -77.15533 | 1294 ft | 161 kts | 155° |
| 2026-05-06 09:18 | -11.97266 | -77.15066 | 901 ft | 145 kts | 154° |
| 2026-05-06 09:19 | -11.98141 | -77.14609 | 680 ft | 144 kts | 153° |
| 2026-05-06 09:19 | -11.99038 | -77.14165 | 483 ft | 142 kts | 155° |
| 2026-05-06 09:19 | -11.99934 | -77.13746 | 345 ft | 147 kts | 156° |
| 2026-05-06 09:19 | -12.00960 | -77.13311 | 1131 ft | 175 kts | 159° |
| 2026-05-06 09:20 | -12.02032 | -77.12991 | 1371 ft | 143 kts | 174° |
| 2026-05-06 09:20 | -12.02991 | -77.13000 | 1276 ft | 160 kts | 186° |
| 2026-05-06 09:20 | -12.04275 | -77.13325 | 1580 ft | 204 kts | 203° |
| 2026-05-06 09:20 | -12.05402 | -77.14157 | 1717 ft | 199 kts | 230° |
| 2026-05-06 09:21 | -12.06044 | -77.15399 | 1972 ft | 201 kts | 260° |
| 2026-05-06 09:21 | -12.05886 | -77.16824 | 2186 ft | 211 kts | 288° |
| 2026-05-06 09:21 | -12.05368 | -77.18209 | 2313 ft | 211 kts | 302° |
| 2026-05-06 09:21 | -11.99890 | -77.19991 | 2858 ft | 271 kts | 351° |
| 2026-05-06 09:22 | -11.92490 | -77.21921 | 2506 ft | 275 kts | 335° |
| 2026-05-06 09:22 | -11.88764 | -77.23682 | 2450 ft | 265 kts | 337° |
| 2026-05-06 09:22 | -11.84689 | -77.22898 | 2494 ft | 261 kts | 50° |
| 2026-05-06 09:22 | -11.86120 | -77.17884 | 2554 ft | 188 kts | 158° |
| 2026-05-06 09:23 | -11.89368 | -77.16535 | 2352 ft | 180 kts | 164° |
| 2026-05-06 09:23 | -11.91314 | -77.16274 | 1939 ft | 183 kts | 176° |
| 2026-05-06 09:23 | -11.92548 | -77.16082 | 1781 ft | 177 kts | 167° |
| 2026-05-06 09:23 | -11.93688 | -77.15654 | 1668 ft | 176 kts | 157° |
| 2026-05-06 09:24 | -11.94802 | -77.15112 | 1564 ft | 178 kts | 153° |
| 2026-05-06 09:24 | -11.95896 | -77.14547 | 1412 ft | 170 kts | 153° |
| 2026-05-06 09:24 | -11.96895 | -77.14019 | 1115 ft | 155 kts | 155° |
| 2026-05-06 09:24 | -11.97829 | -77.13572 | 835 ft | 144 kts | 155° |
| 2026-05-06 09:25 | -11.98734 | -77.13139 | 602 ft | 144 kts | 154° |
| 2026-05-06 09:25 | -11.99627 | -77.12687 | 371 ft | 142 kts | 155° |
| 2026-05-06 09:25 | -12.00510 | -77.12255 | 165 ft | 141 kts | 155° |
| 2026-05-06 09:25 | -12.01332 | -77.11851 | 67 ft | 117 kts | 155° |
| 2026-05-06 09:26 | -12.01898 | -77.11573 | 85 ft | 65 kts | 154° |
| 2026-05-06 09:26 | -12.02159 | -77.11432 | 92 ft | 28 kts | 140° |
| 2026-05-06 09:26 | -12.02266 | -77.11299 | 94 ft | 22 kts | 129° |
| 2026-05-06 09:26 | -12.02350 | -77.11186 | 98 ft | 18 kts | 121° |
| 2026-05-06 09:27 | -12.02409 | -77.11111 | 97 ft | 13 kts | 150° |
| 2026-05-06 09:27 | -12.02476 | -77.11054 | 97 ft | 13 kts | 118° |
| 2026-05-06 09:27 | -12.02510 | -77.10990 | 100 ft | 10 kts | 118° |
| 2026-05-06 09:27 | -12.02562 | -77.10945 | 101 ft | 10 kts | 151° |
| 2026-05-06 09:28 | -12.02623 | -77.10914 | 101 ft | 10 kts | 154° |
| 2026-05-06 09:28 | -12.02685 | -77.10883 | 103 ft | 9 kts | 154° |
| 2026-05-06 09:28 | -12.02744 | -77.10854 | 104 ft | 9 kts | 154° |
| 2026-05-06 09:28 | -12.02773 | -77.10800 | 106 ft | 10 kts | 77° |
| 2026-05-06 09:29 | -12.02740 | -77.10746 | 105 ft | 8 kts | 27° |
| 2026-05-06 09:29 | -12.02678 | -77.10753 | 105 ft | 8 kts | 350° |
| 2026-05-06 09:29 | -12.02668 | -77.10755 | 106 ft | 0 kts | 350° |